sensor_id;sensor_type;location;lat;lon;timestamp;temperature;humidity
20839;DHT22;10580;51.092;6.828;2022-11-11T00:02:01;9.70;99.90
20839;DHT22;10580;51.092;6.828;2022-11-11T00:04:26;9.70;99.90
20839;DHT22;10580;51.092;6.828;2022-11-11T00:06:52;9.70;99.90
20839;DHT22;10580;51.092;6.828;2022-11-11T00:09:18;9.70;99.90
20839;DHT22;10580;51.092;6.828;2022-11-11T00:11:44;9.70;99.90
20839;DHT22;10580;51.092;6.828;2022-11-11T00:14:09;9.70;99.90
20839;DHT22;10580;51.092;6.828;2022-11-11T00:16:35;9.70;99.90
20839;DHT22;10580;51.092;6.828;2022-11-11T00:19:19;9.70;99.90
20839;DHT22;10580;51.092;6.828;2022-11-11T00:22:03;9.60;99.90
20839;DHT22;10580;51.092;6.828;2022-11-11T00:24:47;9.60;99.90
20839;DHT22;10580;51.092;6.828;2022-11-11T00:27:34;9.60;99.90
20839;DHT22;10580;51.092;6.828;2022-11-11T00:30:00;9.60;99.90
20839;DHT22;10580;51.092;6.828;2022-11-11T00:32:25;9.60;99.90
20839;DHT22;10580;51.092;6.828;2022-11-11T00:34:57;9.50;99.90
20839;DHT22;10580;51.092;6.828;2022-11-11T00:37:42;9.50;99.90
20839;DHT22;10580;51.092;6.828;2022-11-11T00:40:09;9.50;99.90
20839;DHT22;10580;51.092;6.828;2022-11-11T00:42:35;9.50;99.90
20839;DHT22;10580;51.092;6.828;2022-11-11T00:45:01;9.50;99.90
20839;DHT22;10580;51.092;6.828;2022-11-11T00:47:27;9.50;99.90
20839;DHT22;10580;51.092;6.828;2022-11-11T00:50:26;9.40;99.90
20839;DHT22;10580;51.092;6.828;2022-11-11T00:53:16;9.40;99.90
20839;DHT22;10580;51.092;6.828;2022-11-11T00:55:43;9.40;99.90
20839;DHT22;10580;51.092;6.828;2022-11-11T00:58:08;9.40;99.90
20839;DHT22;10580;51.092;6.828;2022-11-11T01:00:34;9.30;99.90
20839;DHT22;10580;51.092;6.828;2022-11-11T01:03:00;9.30;99.90
20839;DHT22;10580;51.092;6.828;2022-11-11T01:05:26;9.20;99.90
20839;DHT22;10580;51.092;6.828;2022-11-11T01:07:51;9.10;99.90
20839;DHT22;10580;51.092;6.828;2022-11-11T01:10:18;9.00;99.90
20839;DHT22;10580;51.092;6.828;2022-11-11T01:13:11;9.00;99.90
20839;DHT22;10580;51.092;6.828;2022-11-11T01:15:43;8.90;99.90
20839;DHT22;10580;51.092;6.828;2022-11-11T01:18:10;8.90;99.90
20839;DHT22;10580;51.092;6.828;2022-11-11T01:20:38;8.80;99.90
20839;DHT22;10580;51.092;6.828;2022-11-11T01:23:05;8.80;99.90
20839;DHT22;10580;51.092;6.828;2022-11-11T01:25:38;8.80;99.90
20839;DHT22;10580;51.092;6.828;2022-11-11T01:28:04;8.70;99.90
20839;DHT22;10580;51.092;6.828;2022-11-11T01:30:32;8.70;99.90
20839;DHT22;10580;51.092;6.828;2022-11-11T01:32:57;8.60;99.90
20839;DHT22;10580;51.092;6.828;2022-11-11T01:35:23;8.60;99.90
20839;DHT22;10580;51.092;6.828;2022-11-11T01:37:49;8.60;99.90
20839;DHT22;10580;51.092;6.828;2022-11-11T01:40:15;8.60;99.90
20839;DHT22;10580;51.092;6.828;2022-11-11T01:42:51;8.50;99.90
20839;DHT22;10580;51.092;6.828;2022-11-11T01:48:18;8.40;99.90
20839;DHT22;10580;51.092;6.828;2022-11-11T01:51:05;8.40;99.90
20839;DHT22;10580;51.092;6.828;2022-11-11T01:53:32;8.40;99.90
20839;DHT22;10580;51.092;6.828;2022-11-11T01:55:59;8.40;99.90
20839;DHT22;10580;51.092;6.828;2022-11-11T01:58:26;8.40;99.90
20839;DHT22;10580;51.092;6.828;2022-11-11T02:00:52;8.40;99.90
20839;DHT22;10580;51.092;6.828;2022-11-11T02:03:20;8.40;99.90
20839;DHT22;10580;51.092;6.828;2022-11-11T02:05:47;8.40;99.90
20839;DHT22;10580;51.092;6.828;2022-11-11T02:08:21;8.50;99.90
20839;DHT22;10580;51.092;6.828;2022-11-11T02:11:15;8.50;99.90
20839;DHT22;10580;51.092;6.828;2022-11-11T02:14:02;8.60;99.90
20839;DHT22;10580;51.092;6.828;2022-11-11T02:16:46;8.70;99.90
20839;DHT22;10580;51.092;6.828;2022-11-11T02:19:13;8.70;99.90
20839;DHT22;10580;51.092;6.828;2022-11-11T02:21:44;8.80;99.90
20839;DHT22;10580;51.092;6.828;2022-11-11T02:24:14;8.80;99.90
20839;DHT22;10580;51.092;6.828;2022-11-11T02:26:42;8.80;99.90
20839;DHT22;10580;51.092;6.828;2022-11-11T02:29:18;8.80;99.90
20839;DHT22;10580;51.092;6.828;2022-11-11T02:31:44;8.80;99.90
20839;DHT22;10580;51.092;6.828;2022-11-11T02:34:10;8.80;99.90
20839;DHT22;10580;51.092;6.828;2022-11-11T02:36:36;8.80;99.90
20839;DHT22;10580;51.092;6.828;2022-11-11T02:39:02;8.70;99.90
20839;DHT22;10580;51.092;6.828;2022-11-11T02:41:28;8.80;99.90
20839;DHT22;10580;51.092;6.828;2022-11-11T02:44:12;8.80;99.90
20839;DHT22;10580;51.092;6.828;2022-11-11T02:46:38;8.80;99.90
20839;DHT22;10580;51.092;6.828;2022-11-11T02:49:03;8.80;99.90
20839;DHT22;10580;51.092;6.828;2022-11-11T02:51:29;8.80;99.90
20839;DHT22;10580;51.092;6.828;2022-11-11T02:53:54;8.70;99.90
20839;DHT22;10580;51.092;6.828;2022-11-11T02:56:23;8.70;99.90
20839;DHT22;10580;51.092;6.828;2022-11-11T02:59:07;8.60;99.90
20839;DHT22;10580;51.092;6.828;2022-11-11T03:01:33;8.50;99.90
20839;DHT22;10580;51.092;6.828;2022-11-11T03:03:58;8.40;99.90
20839;DHT22;10580;51.092;6.828;2022-11-11T03:06:24;8.30;99.90
20839;DHT22;10580;51.092;6.828;2022-11-11T03:08:49;8.30;99.90
20839;DHT22;10580;51.092;6.828;2022-11-11T03:11:15;8.30;99.90
20839;DHT22;10580;51.092;6.828;2022-11-11T03:13:40;8.20;99.90
20839;DHT22;10580;51.092;6.828;2022-11-11T03:16:06;8.20;99.90
20839;DHT22;10580;51.092;6.828;2022-11-11T03:18:51;8.10;99.90
20839;DHT22;10580;51.092;6.828;2022-11-11T03:21:17;8.10;99.90
20839;DHT22;10580;51.092;6.828;2022-11-11T03:23:42;8.10;99.90
20839;DHT22;10580;51.092;6.828;2022-11-11T03:26:08;8.00;99.90
20839;DHT22;10580;51.092;6.828;2022-11-11T03:28:33;8.00;99.90
20839;DHT22;10580;51.092;6.828;2022-11-11T03:30:59;8.00;99.90
20839;DHT22;10580;51.092;6.828;2022-11-11T03:33:24;7.90;99.90
20839;DHT22;10580;51.092;6.828;2022-11-11T03:35:50;8.00;99.90
20839;DHT22;10580;51.092;6.828;2022-11-11T03:38:15;8.00;99.90
20839;DHT22;10580;51.092;6.828;2022-11-11T03:40:49;7.90;99.90
20839;DHT22;10580;51.092;6.828;2022-11-11T03:43:16;8.00;99.90
20839;DHT22;10580;51.092;6.828;2022-11-11T03:45:43;8.00;99.90
20839;DHT22;10580;51.092;6.828;2022-11-11T03:48:09;8.00;99.90
20839;DHT22;10580;51.092;6.828;2022-11-11T03:50:35;7.90;99.90
20839;DHT22;10580;51.092;6.828;2022-11-11T03:53:01;7.90;99.90
20839;DHT22;10580;51.092;6.828;2022-11-11T03:55:27;7.90;99.90
20839;DHT22;10580;51.092;6.828;2022-11-11T03:57:53;7.90;99.90
20839;DHT22;10580;51.092;6.828;2022-11-11T04:00:23;7.80;99.90
20839;DHT22;10580;51.092;6.828;2022-11-11T04:02:49;7.80;99.90
20839;DHT22;10580;51.092;6.828;2022-11-11T04:05:33;7.80;99.90
20839;DHT22;10580;51.092;6.828;2022-11-11T04:08:19;7.80;99.90
20839;DHT22;10580;51.092;6.828;2022-11-11T04:11:10;7.80;99.90
20839;DHT22;10580;51.092;6.828;2022-11-11T04:13:37;7.70;99.90
20839;DHT22;10580;51.092;6.828;2022-11-11T04:16:22;7.70;99.90
20839;DHT22;10580;51.092;6.828;2022-11-11T04:18:47;7.70;99.90
20839;DHT22;10580;51.092;6.828;2022-11-11T04:21:32;7.70;99.90
20839;DHT22;10580;51.092;6.828;2022-11-11T04:24:14;7.70;99.90
20839;DHT22;10580;51.092;6.828;2022-11-11T04:27:00;7.70;99.90
20839;DHT22;10580;51.092;6.828;2022-11-11T04:29:27;7.60;99.90
20839;DHT22;10580;51.092;6.828;2022-11-11T04:32:03;7.60;99.90
20839;DHT22;10580;51.092;6.828;2022-11-11T04:34:52;7.60;99.90
20839;DHT22;10580;51.092;6.828;2022-11-11T04:37:19;7.60;99.90
20839;DHT22;10580;51.092;6.828;2022-11-11T04:39:45;7.60;99.90
20839;DHT22;10580;51.092;6.828;2022-11-11T04:42:40;7.60;99.90
20839;DHT22;10580;51.092;6.828;2022-11-11T04:45:08;7.60;99.90
20839;DHT22;10580;51.092;6.828;2022-11-11T04:48:06;7.60;99.90
20839;DHT22;10580;51.092;6.828;2022-11-11T04:50:37;7.60;99.90
20839;DHT22;10580;51.092;6.828;2022-11-11T04:53:06;7.60;99.90
20839;DHT22;10580;51.092;6.828;2022-11-11T04:55:32;7.60;99.90
20839;DHT22;10580;51.092;6.828;2022-11-11T04:58:19;7.60;99.90
20839;DHT22;10580;51.092;6.828;2022-11-11T05:00:45;7.60;99.90
20839;DHT22;10580;51.092;6.828;2022-11-11T05:03:12;7.60;99.90
20839;DHT22;10580;51.092;6.828;2022-11-11T05:05:48;7.60;99.90
20839;DHT22;10580;51.092;6.828;2022-11-11T05:08:35;7.60;99.90
20839;DHT22;10580;51.092;6.828;2022-11-11T05:11:30;7.60;99.90
20839;DHT22;10580;51.092;6.828;2022-11-11T05:14:01;7.60;99.90
20839;DHT22;10580;51.092;6.828;2022-11-11T05:16:59;7.60;99.90
20839;DHT22;10580;51.092;6.828;2022-11-11T05:19:43;7.60;99.90
20839;DHT22;10580;51.092;6.828;2022-11-11T05:22:36;7.60;99.90
20839;DHT22;10580;51.092;6.828;2022-11-11T05:25:04;7.60;99.90
20839;DHT22;10580;51.092;6.828;2022-11-11T05:27:48;7.60;99.90
20839;DHT22;10580;51.092;6.828;2022-11-11T05:30:15;7.60;99.90
20839;DHT22;10580;51.092;6.828;2022-11-11T05:32:41;7.60;99.90
20839;DHT22;10580;51.092;6.828;2022-11-11T05:35:08;7.60;99.90
20839;DHT22;10580;51.092;6.828;2022-11-11T05:37:34;7.60;99.90
20839;DHT22;10580;51.092;6.828;2022-11-11T05:40:00;7.60;99.90
20839;DHT22;10580;51.092;6.828;2022-11-11T05:42:25;7.60;99.90
20839;DHT22;10580;51.092;6.828;2022-11-11T05:44:51;7.50;99.90
20839;DHT22;10580;51.092;6.828;2022-11-11T05:47:16;7.60;99.90
20839;DHT22;10580;51.092;6.828;2022-11-11T05:49:42;7.60;99.90
20839;DHT22;10580;51.092;6.828;2022-11-11T05:52:09;7.50;99.90
20839;DHT22;10580;51.092;6.828;2022-11-11T05:54:35;7.50;99.90
20839;DHT22;10580;51.092;6.828;2022-11-11T05:57:01;7.50;99.90
20839;DHT22;10580;51.092;6.828;2022-11-11T05:59:28;7.50;99.90
20839;DHT22;10580;51.092;6.828;2022-11-11T06:01:53;7.50;99.90
20839;DHT22;10580;51.092;6.828;2022-11-11T06:04:19;7.50;99.90
20839;DHT22;10580;51.092;6.828;2022-11-11T06:06:44;7.50;99.90
20839;DHT22;10580;51.092;6.828;2022-11-11T06:09:10;7.50;99.90
20839;DHT22;10580;51.092;6.828;2022-11-11T06:11:35;7.50;99.90
20839;DHT22;10580;51.092;6.828;2022-11-11T06:14:03;7.50;99.90
20839;DHT22;10580;51.092;6.828;2022-11-11T06:16:29;7.50;99.90
20839;DHT22;10580;51.092;6.828;2022-11-11T06:18:54;7.50;99.90
20839;DHT22;10580;51.092;6.828;2022-11-11T06:21:20;7.50;99.90
20839;DHT22;10580;51.092;6.828;2022-11-11T06:23:45;7.50;99.90
20839;DHT22;10580;51.092;6.828;2022-11-11T06:26:11;7.60;99.90
20839;DHT22;10580;51.092;6.828;2022-11-11T06:28:57;7.60;99.90
20839;DHT22;10580;51.092;6.828;2022-11-11T06:31:24;7.60;99.90
20839;DHT22;10580;51.092;6.828;2022-11-11T06:33:51;7.60;99.90
20839;DHT22;10580;51.092;6.828;2022-11-11T06:36:19;7.60;99.90
20839;DHT22;10580;51.092;6.828;2022-11-11T06:38:45;7.60;99.90
20839;DHT22;10580;51.092;6.828;2022-11-11T06:41:11;7.60;99.90
20839;DHT22;10580;51.092;6.828;2022-11-11T06:43:41;7.60;99.90
20839;DHT22;10580;51.092;6.828;2022-11-11T06:46:15;7.60;99.90
20839;DHT22;10580;51.092;6.828;2022-11-11T06:48:42;7.50;99.90
20839;DHT22;10580;51.092;6.828;2022-11-11T06:51:09;7.60;99.90
20839;DHT22;10580;51.092;6.828;2022-11-11T06:53:35;7.60;99.90
20839;DHT22;10580;51.092;6.828;2022-11-11T06:56:01;7.60;99.90
20839;DHT22;10580;51.092;6.828;2022-11-11T06:58:26;7.60;99.90
20839;DHT22;10580;51.092;6.828;2022-11-11T07:00:52;7.60;99.90
20839;DHT22;10580;51.092;6.828;2022-11-11T07:03:19;7.60;99.90
20839;DHT22;10580;51.092;6.828;2022-11-11T07:05:45;7.70;99.90
20839;DHT22;10580;51.092;6.828;2022-11-11T07:08:13;7.70;99.90
20839;DHT22;10580;51.092;6.828;2022-11-11T07:10:45;7.70;99.90
20839;DHT22;10580;51.092;6.828;2022-11-11T07:13:12;7.80;99.90
20839;DHT22;10580;51.092;6.828;2022-11-11T07:15:38;7.80;99.90
20839;DHT22;10580;51.092;6.828;2022-11-11T07:18:04;7.90;99.90
20839;DHT22;10580;51.092;6.828;2022-11-11T07:20:30;7.90;99.90
20839;DHT22;10580;51.092;6.828;2022-11-11T07:22:55;8.00;99.90
20839;DHT22;10580;51.092;6.828;2022-11-11T07:25:21;8.10;99.90
20839;DHT22;10580;51.092;6.828;2022-11-11T07:27:47;8.10;99.90
20839;DHT22;10580;51.092;6.828;2022-11-11T07:30:12;8.20;99.90
20839;DHT22;10580;51.092;6.828;2022-11-11T07:32:49;8.20;99.90
20839;DHT22;10580;51.092;6.828;2022-11-11T07:35:16;8.20;99.90
20839;DHT22;10580;51.092;6.828;2022-11-11T07:37:43;8.40;99.90
20839;DHT22;10580;51.092;6.828;2022-11-11T07:40:11;8.40;99.90
20839;DHT22;10580;51.092;6.828;2022-11-11T07:42:38;8.50;99.90
20839;DHT22;10580;51.092;6.828;2022-11-11T07:45:04;8.50;99.90
20839;DHT22;10580;51.092;6.828;2022-11-11T07:47:30;8.60;99.90
20839;DHT22;10580;51.092;6.828;2022-11-11T07:49:56;8.70;99.90
20839;DHT22;10580;51.092;6.828;2022-11-11T07:52:22;8.70;99.90
20839;DHT22;10580;51.092;6.828;2022-11-11T07:54:48;8.80;99.90
20839;DHT22;10580;51.092;6.828;2022-11-11T07:57:14;8.80;99.90
20839;DHT22;10580;51.092;6.828;2022-11-11T07:59:40;8.90;99.90
20839;DHT22;10580;51.092;6.828;2022-11-11T08:02:09;8.90;99.90
20839;DHT22;10580;51.092;6.828;2022-11-11T08:04:34;9.00;99.90
20839;DHT22;10580;51.092;6.828;2022-11-11T08:07:00;9.10;99.90
20839;DHT22;10580;51.092;6.828;2022-11-11T08:09:25;9.10;99.90
20839;DHT22;10580;51.092;6.828;2022-11-11T08:11:51;9.20;99.90
20839;DHT22;10580;51.092;6.828;2022-11-11T08:14:35;9.30;99.90
20839;DHT22;10580;51.092;6.828;2022-11-11T08:17:01;9.40;99.90
20839;DHT22;10580;51.092;6.828;2022-11-11T08:19:26;9.40;99.90
20839;DHT22;10580;51.092;6.828;2022-11-11T08:21:52;9.50;99.90
20839;DHT22;10580;51.092;6.828;2022-11-11T08:24:17;9.50;99.90
20839;DHT22;10580;51.092;6.828;2022-11-11T08:26:43;9.60;99.90
20839;DHT22;10580;51.092;6.828;2022-11-11T08:29:09;9.70;99.90
20839;DHT22;10580;51.092;6.828;2022-11-11T08:31:34;9.80;99.90
20839;DHT22;10580;51.092;6.828;2022-11-11T08:34:00;10.00;99.90
20839;DHT22;10580;51.092;6.828;2022-11-11T08:36:25;10.10;99.90
20839;DHT22;10580;51.092;6.828;2022-11-11T08:38:51;10.20;99.90
20839;DHT22;10580;51.092;6.828;2022-11-11T08:41:16;10.30;99.90
20839;DHT22;10580;51.092;6.828;2022-11-11T08:43:42;10.40;99.90
20839;DHT22;10580;51.092;6.828;2022-11-11T08:46:08;10.60;99.90
20839;DHT22;10580;51.092;6.828;2022-11-11T08:48:36;10.70;99.90
20839;DHT22;10580;51.092;6.828;2022-11-11T08:51:01;10.70;99.90
20839;DHT22;10580;51.092;6.828;2022-11-11T08:53:27;10.70;99.90
20839;DHT22;10580;51.092;6.828;2022-11-11T08:55:52;10.70;99.90
20839;DHT22;10580;51.092;6.828;2022-11-11T08:58:18;10.80;99.90
20839;DHT22;10580;51.092;6.828;2022-11-11T09:00:45;10.90;99.90
20839;DHT22;10580;51.092;6.828;2022-11-11T09:03:11;11.00;99.90
20839;DHT22;10580;51.092;6.828;2022-11-11T09:05:38;11.00;99.90
20839;DHT22;10580;51.092;6.828;2022-11-11T09:08:04;11.20;99.90
20839;DHT22;10580;51.092;6.828;2022-11-11T09:10:32;11.30;99.90
20839;DHT22;10580;51.092;6.828;2022-11-11T09:12:58;11.50;99.90
20839;DHT22;10580;51.092;6.828;2022-11-11T09:15:25;11.70;99.90
20839;DHT22;10580;51.092;6.828;2022-11-11T09:17:51;11.80;99.90
20839;DHT22;10580;51.092;6.828;2022-11-11T09:20:17;11.80;99.90
20839;DHT22;10580;51.092;6.828;2022-11-11T09:22:44;12.00;99.90
20839;DHT22;10580;51.092;6.828;2022-11-11T09:25:10;12.00;99.90
20839;DHT22;10580;51.092;6.828;2022-11-11T09:27:36;12.40;99.90
20839;DHT22;10580;51.092;6.828;2022-11-11T09:30:02;12.60;99.90
20839;DHT22;10580;51.092;6.828;2022-11-11T09:32:28;12.70;99.90
20839;DHT22;10580;51.092;6.828;2022-11-11T09:34:53;12.70;99.90
20839;DHT22;10580;51.092;6.828;2022-11-11T09:37:22;12.60;99.90
20839;DHT22;10580;51.092;6.828;2022-11-11T09:39:48;12.40;99.90
20839;DHT22;10580;51.092;6.828;2022-11-11T09:45:04;12.20;99.90
20839;DHT22;10580;51.092;6.828;2022-11-11T09:47:44;12.10;99.90
20839;DHT22;10580;51.092;6.828;2022-11-11T09:50:23;12.20;99.90
20839;DHT22;10580;51.092;6.828;2022-11-11T09:53:03;12.30;99.90
20839;DHT22;10580;51.092;6.828;2022-11-11T09:55:37;12.40;99.90
20839;DHT22;10580;51.092;6.828;2022-11-11T09:58:18;12.60;99.90
20839;DHT22;10580;51.092;6.828;2022-11-11T10:00:46;12.80;99.90
20839;DHT22;10580;51.092;6.828;2022-11-11T10:03:21;12.90;99.90
20839;DHT22;10580;51.092;6.828;2022-11-11T10:10:50;12.70;99.90
20839;DHT22;10580;51.092;6.828;2022-11-11T10:13:20;12.80;99.90
20839;DHT22;10580;51.092;6.828;2022-11-11T10:18:35;12.70;99.90
20839;DHT22;10580;51.092;6.828;2022-11-11T10:21:07;12.70;99.90
20839;DHT22;10580;51.092;6.828;2022-11-11T10:23:36;12.60;99.90
20839;DHT22;10580;51.092;6.828;2022-11-11T10:26:15;12.50;99.90
20839;DHT22;10580;51.092;6.828;2022-11-11T10:28:44;12.40;99.90
20839;DHT22;10580;51.092;6.828;2022-11-11T10:31:16;12.30;99.90
20839;DHT22;10580;51.092;6.828;2022-11-11T10:33:54;12.20;99.90
20839;DHT22;10580;51.092;6.828;2022-11-11T10:36:23;12.30;99.90
20839;DHT22;10580;51.092;6.828;2022-11-11T10:39:02;12.30;99.90
20839;DHT22;10580;51.092;6.828;2022-11-11T10:41:46;12.10;99.90
20839;DHT22;10580;51.092;6.828;2022-11-11T10:47:05;12.30;99.90
20839;DHT22;10580;51.092;6.828;2022-11-11T10:49:40;12.20;99.90
20839;DHT22;10580;51.092;6.828;2022-11-11T10:52:29;12.30;99.90
20839;DHT22;10580;51.092;6.828;2022-11-11T10:55:07;12.20;99.90
20839;DHT22;10580;51.092;6.828;2022-11-11T10:57:37;12.20;99.90
20839;DHT22;10580;51.092;6.828;2022-11-11T11:00:08;12.20;99.90
20839;DHT22;10580;51.092;6.828;2022-11-11T11:03:04;12.20;99.90
20839;DHT22;10580;51.092;6.828;2022-11-11T11:05:41;12.20;99.90
20839;DHT22;10580;51.092;6.828;2022-11-11T11:08:13;12.20;99.90
20839;DHT22;10580;51.092;6.828;2022-11-11T11:10:42;12.30;99.90
20839;DHT22;10580;51.092;6.828;2022-11-11T11:13:22;12.30;99.90
20839;DHT22;10580;51.092;6.828;2022-11-11T11:15:55;12.30;99.90
20839;DHT22;10580;51.092;6.828;2022-11-11T11:18:22;12.30;99.90
20839;DHT22;10580;51.092;6.828;2022-11-11T11:21:00;12.30;99.90
20839;DHT22;10580;51.092;6.828;2022-11-11T11:23:37;12.20;99.90
20839;DHT22;10580;51.092;6.828;2022-11-11T11:26:04;12.20;99.90
20839;DHT22;10580;51.092;6.828;2022-11-11T11:28:30;12.30;99.90
20839;DHT22;10580;51.092;6.828;2022-11-11T11:31:01;12.40;99.90
20839;DHT22;10580;51.092;6.828;2022-11-11T11:33:27;12.50;99.90
20839;DHT22;10580;51.092;6.828;2022-11-11T11:36:16;12.60;99.90
20839;DHT22;10580;51.092;6.828;2022-11-11T11:38:44;12.70;99.90
20839;DHT22;10580;51.092;6.828;2022-11-11T11:41:15;12.80;99.90
20839;DHT22;10580;51.092;6.828;2022-11-11T11:43:42;12.90;99.90
20839;DHT22;10580;51.092;6.828;2022-11-11T11:49:18;13.20;99.90
20839;DHT22;10580;51.092;6.828;2022-11-11T11:52:11;13.40;99.90
20839;DHT22;10580;51.092;6.828;2022-11-11T11:54:55;13.60;99.90
20839;DHT22;10580;51.092;6.828;2022-11-11T12:00:33;13.70;99.90
20839;DHT22;10580;51.092;6.828;2022-11-11T12:05:54;14.00;83.90
20839;DHT22;10580;51.092;6.828;2022-11-11T12:08:31;14.30;1.70
20839;DHT22;10580;51.092;6.828;2022-11-11T12:11:13;14.60;1.00
20839;DHT22;10580;51.092;6.828;2022-11-11T12:30:17;14.50;1.00
20839;DHT22;10580;51.092;6.828;2022-11-11T12:33:13;14.50;1.00
20839;DHT22;10580;51.092;6.828;2022-11-11T12:36:28;14.60;1.00
20839;DHT22;10580;51.092;6.828;2022-11-11T12:42:03;14.40;1.00
20839;DHT22;10580;51.092;6.828;2022-11-11T12:44:32;14.40;1.00
20839;DHT22;10580;51.092;6.828;2022-11-11T12:47:22;14.40;1.00
20839;DHT22;10580;51.092;6.828;2022-11-11T12:53:15;14.40;1.00
20839;DHT22;10580;51.092;6.828;2022-11-11T12:56:27;14.40;1.00
20839;DHT22;10580;51.092;6.828;2022-11-11T13:05:09;14.30;1.00
20839;DHT22;10580;51.092;6.828;2022-11-11T13:11:07;14.40;1.00
20839;DHT22;10580;51.092;6.828;2022-11-11T13:16:38;14.40;1.00
20839;DHT22;10580;51.092;6.828;2022-11-11T13:19:17;14.50;1.00
20839;DHT22;10580;51.092;6.828;2022-11-11T13:21:53;14.90;1.00
20839;DHT22;10580;51.092;6.828;2022-11-11T13:24:22;15.60;1.00
20839;DHT22;10580;51.092;6.828;2022-11-11T13:26:48;15.90;1.00
20839;DHT22;10580;51.092;6.828;2022-11-11T13:32:25;16.90;1.00
20839;DHT22;10580;51.092;6.828;2022-11-11T13:34:53;16.80;1.00
20839;DHT22;10580;51.092;6.828;2022-11-11T13:37:25;16.90;1.00
20839;DHT22;10580;51.092;6.828;2022-11-11T13:40:05;16.70;1.00
20839;DHT22;10580;51.092;6.828;2022-11-11T13:42:39;16.10;1.00
20839;DHT22;10580;51.092;6.828;2022-11-11T13:45:07;15.80;1.00
20839;DHT22;10580;51.092;6.828;2022-11-11T13:47:44;15.60;1.00
20839;DHT22;10580;51.092;6.828;2022-11-11T13:50:35;15.80;1.00
20839;DHT22;10580;51.092;6.828;2022-11-11T13:53:11;16.40;1.00
20839;DHT22;10580;51.092;6.828;2022-11-11T13:55:41;17.00;1.00
20839;DHT22;10580;51.092;6.828;2022-11-11T13:58:25;17.50;99.90
20839;DHT22;10580;51.092;6.828;2022-11-11T14:00:59;18.00;99.90
20839;DHT22;10580;51.092;6.828;2022-11-11T14:08:57;18.40;1.00
20839;DHT22;10580;51.092;6.828;2022-11-11T14:13:49;18.80;1.00
20839;DHT22;10580;51.092;6.828;2022-11-11T14:21:52;18.80;1.00
20839;DHT22;10580;51.092;6.828;2022-11-11T14:24:30;19.00;99.90
20839;DHT22;10580;51.092;6.828;2022-11-11T14:27:03;19.10;91.70
20839;DHT22;10580;51.092;6.828;2022-11-11T14:32:18;18.10;1.00
20839;DHT22;10580;51.092;6.828;2022-11-11T14:35:18;17.60;1.00
20839;DHT22;10580;51.092;6.828;2022-11-11T14:55:09;15.20;1.00
20839;DHT22;10580;51.092;6.828;2022-11-11T14:57:37;15.00;1.00
20839;DHT22;10580;51.092;6.828;2022-11-11T15:00:25;14.90;1.00
20839;DHT22;10580;51.092;6.828;2022-11-11T15:06:14;14.70;1.00
20839;DHT22;10580;51.092;6.828;2022-11-11T15:08:55;14.50;1.00
20839;DHT22;10580;51.092;6.828;2022-11-11T15:11:42;14.40;1.00
20839;DHT22;10580;51.092;6.828;2022-11-11T15:14:41;14.30;1.00
20839;DHT22;10580;51.092;6.828;2022-11-11T15:17:33;14.20;1.00
20839;DHT22;10580;51.092;6.828;2022-11-11T15:30:42;13.90;1.00
20839;DHT22;10580;51.092;6.828;2022-11-11T15:33:57;13.90;1.00
20839;DHT22;10580;51.092;6.828;2022-11-11T15:36:17;13.80;1.00
20839;DHT22;10580;51.092;6.828;2022-11-11T15:38:44;13.80;1.00
20839;DHT22;10580;51.092;6.828;2022-11-11T15:41:33;13.70;1.00
20839;DHT22;10580;51.092;6.828;2022-11-11T15:44:00;13.60;1.00
20839;DHT22;10580;51.092;6.828;2022-11-11T15:46:30;13.50;1.00
20839;DHT22;10580;51.092;6.828;2022-11-11T15:48:59;13.50;1.00
20839;DHT22;10580;51.092;6.828;2022-11-11T15:51:27;13.40;1.00
20839;DHT22;10580;51.092;6.828;2022-11-11T15:54:08;13.30;1.00
20839;DHT22;10580;51.092;6.828;2022-11-11T15:56:34;13.20;2.20
20839;DHT22;10580;51.092;6.828;2022-11-11T15:59:22;13.10;5.40
20839;DHT22;10580;51.092;6.828;2022-11-11T16:01:49;13.10;9.20
20839;DHT22;10580;51.092;6.828;2022-11-11T16:04:18;13.10;1.10
20839;DHT22;10580;51.092;6.828;2022-11-11T16:06:45;13.10;1.00
20839;DHT22;10580;51.092;6.828;2022-11-11T16:09:13;13.10;1.00
20839;DHT22;10580;51.092;6.828;2022-11-11T16:11:40;13.20;1.00
20839;DHT22;10580;51.092;6.828;2022-11-11T16:14:20;13.20;1.00
20839;DHT22;10580;51.092;6.828;2022-11-11T16:16:47;13.10;1.00
20839;DHT22;10580;51.092;6.828;2022-11-11T16:21:55;12.90;1.00
20839;DHT22;10580;51.092;6.828;2022-11-11T16:24:30;12.80;1.50
20839;DHT22;10580;51.092;6.828;2022-11-11T16:26:57;12.70;7.20
20839;DHT22;10580;51.092;6.828;2022-11-11T16:29:31;12.70;11.30
20839;DHT22;10580;51.092;6.828;2022-11-11T16:31:57;12.60;18.00
20839;DHT22;10580;51.092;6.828;2022-11-11T16:37:21;12.40;29.60
20839;DHT22;10580;51.092;6.828;2022-11-11T16:39:47;12.30;39.40
20839;DHT22;10580;51.092;6.828;2022-11-11T16:42:21;12.30;42.40
20839;DHT22;10580;51.092;6.828;2022-11-11T16:44:52;12.30;46.90
20839;DHT22;10580;51.092;6.828;2022-11-11T16:47:40;12.20;52.10
20839;DHT22;10580;51.092;6.828;2022-11-11T16:52:48;12.10;70.00
20839;DHT22;10580;51.092;6.828;2022-11-11T16:57:55;11.90;90.00
20839;DHT22;10580;51.092;6.828;2022-11-11T17:00:22;11.90;95.30
20839;DHT22;10580;51.092;6.828;2022-11-11T17:03:16;11.80;98.40
20839;DHT22;10580;51.092;6.828;2022-11-11T17:05:51;11.80;99.90
20839;DHT22;10580;51.092;6.828;2022-11-11T17:08:36;11.80;99.90
20839;DHT22;10580;51.092;6.828;2022-11-11T17:11:05;11.70;99.90
20839;DHT22;10580;51.092;6.828;2022-11-11T17:13:32;11.60;99.90
20839;DHT22;10580;51.092;6.828;2022-11-11T17:16:03;11.60;99.90
20839;DHT22;10580;51.092;6.828;2022-11-11T17:18:34;11.50;99.90
20839;DHT22;10580;51.092;6.828;2022-11-11T17:21:01;11.50;99.90
20839;DHT22;10580;51.092;6.828;2022-11-11T17:23:27;11.50;99.90
20839;DHT22;10580;51.092;6.828;2022-11-11T17:25:56;11.40;99.90
20839;DHT22;10580;51.092;6.828;2022-11-11T17:28:25;11.40;99.90
20839;DHT22;10580;51.092;6.828;2022-11-11T17:30:51;11.40;99.90
20839;DHT22;10580;51.092;6.828;2022-11-11T17:33:17;11.30;99.90
20839;DHT22;10580;51.092;6.828;2022-11-11T17:35:52;11.30;99.90
20839;DHT22;10580;51.092;6.828;2022-11-11T17:38:18;11.20;99.90
20839;DHT22;10580;51.092;6.828;2022-11-11T17:40:47;11.20;99.90
20839;DHT22;10580;51.092;6.828;2022-11-11T17:43:14;11.20;99.90
20839;DHT22;10580;51.092;6.828;2022-11-11T17:45:40;11.20;99.90
20839;DHT22;10580;51.092;6.828;2022-11-11T17:48:06;11.20;99.90
20839;DHT22;10580;51.092;6.828;2022-11-11T17:50:32;11.20;99.90
20839;DHT22;10580;51.092;6.828;2022-11-11T17:52:58;11.20;99.90
20839;DHT22;10580;51.092;6.828;2022-11-11T17:55:23;11.30;99.90
20839;DHT22;10580;51.092;6.828;2022-11-11T17:57:49;11.30;99.90
20839;DHT22;10580;51.092;6.828;2022-11-11T18:00:16;11.30;99.90
20839;DHT22;10580;51.092;6.828;2022-11-11T18:02:42;11.30;99.90
20839;DHT22;10580;51.092;6.828;2022-11-11T18:05:08;11.20;99.90
20839;DHT22;10580;51.092;6.828;2022-11-11T18:07:33;11.20;99.90
20839;DHT22;10580;51.092;6.828;2022-11-11T18:09:59;11.20;99.90
20839;DHT22;10580;51.092;6.828;2022-11-11T18:12:27;11.10;99.90